createdAt,value
2018-12-18T00:00:48.283Z,84.35
2018-12-18T00:03:42.982Z,84.79
2018-12-18T00:06:40.085Z,85.23
2018-12-18T00:09:28.357Z,85.45
2018-12-18T00:12:16.814Z,85.54
2018-12-18T00:15:06.987Z,85.70
2018-12-18T00:17:58.121Z,85.87
2018-12-18T00:20:51.152Z,86.03
2018-12-18T00:23:43.483Z,86.06
2018-12-18T00:26:34.873Z,86.23
2018-12-18T00:29:24.549Z,86.26
2018-12-18T00:32:21.826Z,86.35
2018-12-18T00:35:13.683Z,86.41
2018-12-18T00:38:03.961Z,86.49
2018-12-18T00:40:52.098Z,86.40
2018-12-18T00:43:39.626Z,86.41
2018-12-18T00:46:29.333Z,86.46
2018-12-18T00:49:16.941Z,86.47
2018-12-18T00:52:09.155Z,86.51
2018-12-18T00:54:57.154Z,86.62
2018-12-18T01:00:50.569Z,85.08
2018-12-18T01:03:37.702Z,85.56
2018-12-18T01:09:32.110Z,86.18
2018-12-18T01:12:23.881Z,86.35
2018-12-18T01:21:26.001Z,86.54
2018-12-18T01:24:14.034Z,86.53
2018-12-18T01:27:01.666Z,86.50
2018-12-18T01:29:50.258Z,86.50
2018-12-18T01:32:37.466Z,86.47
2018-12-18T01:35:25.898Z,86.53
2018-12-18T01:38:14.110Z,86.55
2018-12-18T01:41:04.794Z,85.26
2018-12-18T01:43:53.634Z,85.82
2018-12-18T01:46:44.590Z,86.14
2018-12-18T01:49:33.521Z,86.34
2018-12-18T01:52:21.230Z,86.51
2018-12-18T01:55:09.374Z,85.07
2018-12-18T01:57:56.623Z,85.63
2018-12-18T02:00:45.064Z,86.00
2018-12-18T02:03:38.199Z,86.33
2018-12-18T02:06:25.806Z,86.40
2018-12-18T02:09:13.170Z,86.54
2018-12-18T02:12:02.634Z,86.63
2018-12-18T02:14:51.258Z,86.91
2018-12-18T02:17:38.612Z,86.86
2018-12-18T02:20:26.433Z,87.11
2018-12-18T02:23:17.126Z,87.09
2018-12-18T02:26:05.327Z,87.35
2018-12-18T02:28:53.014Z,87.26
2018-12-18T02:31:41.437Z,87.41
2018-12-18T02:37:37.615Z,87.51
2018-12-18T02:40:34.640Z,87.56
2018-12-18T02:43:22.035Z,87.56
2018-12-18T02:46:10.374Z,87.57
2018-12-18T02:48:59.180Z,87.48
2018-12-18T02:51:50.617Z,87.50
2018-12-18T02:57:46.609Z,87.56
2018-12-18T03:00:34.161Z,87.53
2018-12-18T03:03:30.062Z,87.58
2018-12-18T03:09:24.305Z,87.45
2018-12-18T03:18:27.035Z,87.57
2018-12-18T03:21:15.606Z,87.63
2018-12-18T03:24:03.288Z,87.61
2018-12-18T03:29:56.684Z,86.08
2018-12-18T03:32:44.985Z,86.59
2018-12-18T03:35:39.259Z,86.70
2018-12-18T03:38:26.974Z,86.86
2018-12-18T03:41:18.537Z,87.01
2018-12-18T03:44:07.275Z,87.03
2018-12-18T03:46:54.248Z,87.15
2018-12-18T03:49:41.790Z,87.27
2018-12-18T03:52:29.919Z,87.36
2018-12-18T03:55:18.183Z,87.39
2018-12-18T04:01:11.860Z,87.31
2018-12-18T04:07:05.936Z,87.32
2018-12-18T04:09:53.321Z,87.26
2018-12-18T04:12:42.163Z,87.20
2018-12-18T04:15:29.731Z,87.11
2018-12-18T04:18:20.269Z,87.12
2018-12-18T04:21:10.929Z,87.11
2018-12-18T04:23:57.999Z,87.12
2018-12-18T04:26:44.907Z,87.11
2018-12-18T04:29:34.052Z,85.70
2018-12-18T04:32:22.673Z,84.61
2018-12-18T04:35:10.731Z,85.25
2018-12-18T04:38:00.744Z,85.56
2018-12-18T04:40:49.810Z,85.71
2018-12-18T04:43:37.018Z,85.83
2018-12-18T04:46:25.332Z,85.88
2018-12-18T04:49:16.377Z,86.00
2018-12-18T04:52:03.886Z,86.11
2018-12-18T04:54:52.028Z,86.21
2018-12-18T04:57:39.392Z,86.28
2018-12-18T05:00:28.652Z,86.35
2018-12-18T05:03:16.994Z,86.48
2018-12-18T05:06:04.663Z,86.59
2018-12-18T05:08:56.039Z,86.71
2018-12-18T05:11:51.382Z,86.83
2018-12-18T05:14:47.110Z,86.97
2018-12-18T05:20:41.753Z,87.19
2018-12-18T05:23:28.920Z,87.21
2018-12-18T05:26:16.698Z,87.20
2018-12-18T05:29:12.359Z,87.23
2018-12-18T05:32:01.525Z,87.29
2018-12-18T05:34:56.457Z,87.29
2018-12-18T05:37:55.893Z,87.29
2018-12-18T05:40:43.018Z,87.27
2018-12-18T05:49:44.336Z,87.34
2018-12-18T05:52:31.957Z,87.33
2018-12-18T05:55:19.221Z,87.36
2018-12-18T05:58:07.735Z,86.01
2018-12-18T06:04:04.549Z,86.65
2018-12-18T06:06:52.197Z,85.26
2018-12-18T06:09:47.886Z,84.25
2018-12-18T06:12:35.144Z,84.92
2018-12-18T06:15:22.417Z,85.29
2018-12-18T06:18:09.352Z,85.60
2018-12-18T06:20:56.664Z,85.86
2018-12-18T06:23:44.512Z,86.05
2018-12-18T06:26:33.062Z,86.16
2018-12-18T06:29:20.253Z,86.40
2018-12-18T06:32:08.082Z,86.45
2018-12-18T06:35:09.994Z,85.13
2018-12-18T06:37:59.358Z,85.63
2018-12-18T06:40:47.236Z,84.26
2018-12-18T06:43:37.471Z,83.28
2018-12-18T06:46:25.763Z,82.41
2018-12-18T06:49:14.359Z,83.41
2018-12-18T06:52:04.441Z,83.98
2018-12-18T06:54:51.949Z,84.35
2018-12-18T06:57:43.193Z,84.68
2018-12-18T07:00:30.361Z,84.96
2018-12-18T07:03:17.862Z,85.21
2018-12-18T07:06:10.021Z,85.41
2018-12-18T07:08:57.176Z,84.11
2018-12-18T07:11:44.760Z,84.80
2018-12-18T07:14:32.217Z,85.23
2018-12-18T07:17:19.617Z,85.56
2018-12-18T07:20:06.978Z,85.86
2018-12-18T07:22:54.593Z,86.07
2018-12-18T07:25:42.159Z,86.19
2018-12-18T07:28:29.619Z,86.33
2018-12-18T07:31:17.064Z,86.43
2018-12-18T07:34:05.262Z,86.49
2018-12-18T07:37:00.372Z,86.57
2018-12-18T07:42:54.203Z,86.82
2018-12-18T07:45:49.390Z,86.88
2018-12-18T07:48:46.943Z,86.93
2018-12-18T07:51:36.815Z,87.00
2018-12-18T07:54:26.333Z,87.03
2018-12-18T07:57:29.682Z,87.11
2018-12-18T08:06:38.865Z,87.12
2018-12-18T08:12:37.690Z,87.13
2018-12-18T08:18:36.289Z,85.46
2018-12-18T08:21:24.391Z,85.93
2018-12-18T08:24:12.764Z,86.08
2018-12-18T08:33:21.553Z,86.38
2018-12-18T08:42:22.809Z,86.43
2018-12-18T08:48:17.253Z,86.38
2018-12-18T08:51:09.259Z,84.67
2018-12-18T08:53:58.525Z,83.21
2018-12-18T09:12:22.180Z,83.64
2018-12-18T09:15:27.618Z,83.58
2018-12-18T09:18:19.469Z,83.55
2018-12-18T09:21:06.588Z,83.54
2018-12-18T09:24:09.686Z,83.63
2018-12-18T09:30:04.557Z,81.34
2018-12-18T09:32:51.810Z,81.98
2018-12-18T09:35:41.598Z,82.44
2018-12-18T09:42:12.466Z,82.63
2018-12-18T10:10:08.525Z,82.51
2018-12-18T10:13:04.282Z,82.50
2018-12-18T10:15:55.315Z,82.42
2018-12-18T10:18:43.617Z,82.43
2018-12-18T10:21:31.195Z,82.13
2018-12-18T10:30:52.290Z,81.61
2018-12-18T10:36:49.678Z,78.79
2018-12-18T10:45:52.904Z,80.28
2018-12-18T10:51:50.136Z,80.67
2018-12-18T10:54:47.607Z,80.63
2018-12-18T10:57:35.577Z,80.82
2018-12-18T11:00:41.371Z,80.88
2018-12-18T11:03:28.729Z,80.78
2018-12-18T11:06:16.708Z,80.61
2018-12-18T11:09:23.099Z,77.96
2018-12-18T11:12:28.189Z,78.97
2018-12-18T11:15:16.658Z,79.46
2018-12-18T11:18:04.032Z,79.73
2018-12-18T11:27:13.676Z,79.97
2018-12-18T11:33:16.036Z,79.47
2018-12-18T11:36:16.396Z,76.64
2018-12-18T11:39:01.009Z,77.87
2018-12-18T11:41:50.193Z,78.44
2018-12-18T11:44:41.385Z,75.00
2018-12-18T11:50:39.213Z,76.64
2018-12-18T11:53:34.854Z,77.02
2018-12-18T11:56:22.851Z,76.45
2018-12-18T11:59:16.006Z,75.94
2018-12-18T12:02:02.920Z,75.68
2018-12-18T12:04:50.768Z,75.55
2018-12-18T12:10:45.870Z,75.00
2018-12-18T12:13:33.324Z,73.76
2018-12-18T12:16:20.686Z,70.54
2018-12-18T12:19:09.120Z,72.01
2018-12-18T12:28:15.448Z,73.37
2018-12-18T12:31:05.415Z,72.89
2018-12-18T12:33:53.048Z,73.16
2018-12-18T12:36:42.635Z,73.74
2018-12-18T12:39:30.915Z,74.13
2018-12-18T12:42:36.760Z,74.35
2018-12-18T12:45:25.194Z,74.49
2018-12-18T12:48:13.168Z,74.69
2018-12-18T12:51:03.413Z,74.73
2018-12-18T12:53:50.976Z,74.17
2018-12-18T12:56:38.300Z,74.56
2018-12-18T12:59:25.973Z,74.46
2018-12-18T13:02:16.699Z,74.68
2018-12-18T13:05:04.156Z,71.46
2018-12-18T13:07:51.975Z,72.99
2018-12-18T13:10:40.329Z,73.94
2018-12-18T13:13:28.453Z,74.35
2018-12-18T13:16:15.772Z,74.46
2018-12-18T13:25:16.981Z,74.81
2018-12-18T13:28:04.347Z,75.05
2018-12-18T13:34:02.349Z,73.62
2018-12-18T13:40:01.509Z,69.82
2018-12-18T13:42:51.621Z,71.99
2018-12-18T13:48:47.394Z,73.69
2018-12-18T13:51:34.873Z,74.19
2018-12-18T13:54:22.156Z,74.48
2018-12-18T13:57:13.613Z,74.77
2018-12-18T14:00:01.058Z,75.22
2018-12-18T14:02:49.661Z,75.50
2018-12-18T14:05:37.629Z,75.82
2018-12-18T14:08:25.856Z,76.18
2018-12-18T14:14:20.406Z,76.82
2018-12-18T14:17:16.959Z,77.00
2018-12-18T14:20:04.994Z,77.26
2018-12-18T14:22:52.343Z,77.47
2018-12-18T14:25:42.966Z,77.62
2018-12-18T14:28:31.703Z,77.83
2018-12-18T14:31:19.635Z,77.94
2018-12-18T14:34:06.918Z,77.99
2018-12-18T14:36:56.347Z,77.97
2018-12-18T14:39:42.107Z,78.10
2018-12-18T14:42:30.210Z,78.44
2018-12-18T14:45:18.184Z,78.66
2018-12-18T14:48:09.295Z,78.80
2018-12-18T14:50:56.845Z,79.00
2018-12-18T14:53:45.444Z,78.97
2018-12-18T14:56:34.088Z,79.22
2018-12-18T14:59:21.434Z,79.41
2018-12-18T15:02:10.745Z,79.60
2018-12-18T15:04:58.697Z,79.79
2018-12-18T15:07:47.023Z,79.85
2018-12-18T15:10:44.350Z,79.97
2018-12-18T15:13:33.790Z,80.48
2018-12-18T15:16:21.326Z,80.73
2018-12-18T15:19:08.860Z,80.82
2018-12-18T15:21:56.381Z,80.85
2018-12-18T15:28:05.261Z,81.21
2018-12-18T15:30:59.084Z,81.01
2018-12-18T15:33:46.498Z,79.02
2018-12-18T15:36:44.137Z,79.77
2018-12-18T15:39:31.390Z,80.22
2018-12-18T15:45:26.617Z,80.44
2018-12-18T15:48:13.962Z,80.59
2018-12-18T15:51:01.643Z,80.81
2018-12-18T15:53:48.957Z,80.87
2018-12-18T15:56:36.295Z,80.94
2018-12-18T15:59:24.559Z,81.08
2018-12-18T16:02:13.649Z,81.21
2018-12-18T16:05:01.495Z,81.24
2018-12-18T16:08:05.336Z,81.25
2018-12-18T16:10:52.709Z,81.27
2018-12-18T16:13:39.911Z,81.27
2018-12-18T16:16:27.253Z,81.35
2018-12-18T16:19:14.500Z,81.54
2018-12-18T16:22:02.103Z,81.84
2018-12-18T16:24:49.204Z,81.99
2018-12-18T16:27:46.885Z,82.12
2018-12-18T16:30:34.227Z,82.32
2018-12-18T16:33:21.549Z,82.63
2018-12-18T16:36:08.948Z,82.62
2018-12-18T16:38:56.396Z,82.86
2018-12-18T16:41:43.765Z,81.65
2018-12-18T16:44:31.303Z,82.30
2018-12-18T16:47:18.861Z,82.67
2018-12-18T16:50:07.116Z,82.78
2018-12-18T16:52:54.432Z,82.94
2018-12-18T16:55:41.635Z,81.63
2018-12-18T16:58:31.141Z,82.19
2018-12-18T17:01:18.215Z,82.50
2018-12-18T17:04:05.546Z,82.53
2018-12-18T17:06:53.277Z,82.68
2018-12-18T17:09:40.498Z,82.94
2018-12-18T17:12:38.715Z,83.13
2018-12-18T17:15:39.585Z,83.24
2018-12-18T17:18:26.914Z,83.37
2018-12-18T17:21:14.405Z,83.34
2018-12-18T17:24:06.089Z,83.30
2018-12-18T17:26:53.198Z,83.44
2018-12-18T17:29:40.678Z,83.42
2018-12-18T17:32:31.864Z,83.35
2018-12-18T17:35:19.277Z,83.45
2018-12-18T17:38:06.508Z,83.58
2018-12-18T17:40:53.975Z,82.44
2018-12-18T17:43:41.483Z,82.92
2018-12-18T17:46:28.888Z,83.24
2018-12-18T17:49:17.791Z,82.13
2018-12-18T17:52:09.069Z,82.65
2018-12-18T17:54:55.963Z,81.75
2018-12-18T18:00:49.587Z,82.72
2018-12-18T18:03:36.985Z,81.66
2018-12-18T18:06:25.215Z,82.30
2018-12-18T18:09:12.895Z,82.69
2018-12-18T18:12:03.347Z,83.01
2018-12-18T18:14:51.463Z,83.33
2018-12-18T18:17:38.972Z,83.57
2018-12-18T18:20:34.313Z,82.44
2018-12-18T18:23:25.334Z,83.18
2018-12-18T18:26:20.997Z,83.52
2018-12-18T18:32:15.457Z,83.07
2018-12-18T18:35:02.854Z,83.63
2018-12-18T18:37:50.336Z,82.53
2018-12-18T18:40:38.091Z,83.20
2018-12-18T18:43:27.381Z,83.80
2018-12-18T18:46:16.470Z,84.08
2018-12-18T18:49:03.874Z,84.38
2018-12-18T18:51:51.633Z,84.70
2018-12-18T18:54:38.758Z,85.05
2018-12-18T18:57:26.000Z,83.90
2018-12-18T19:00:13.534Z,84.61
2018-12-18T19:03:03.671Z,84.92
2018-12-18T19:05:50.978Z,83.76
2018-12-18T19:08:39.370Z,84.14
2018-12-18T19:11:26.285Z,84.22
2018-12-18T19:14:21.475Z,84.59
2018-12-18T19:17:24.906Z,84.92
2018-12-18T19:20:12.787Z,85.15
2018-12-18T19:23:00.488Z,85.36
2018-12-18T19:25:47.810Z,84.28
2018-12-18T19:28:35.492Z,84.88
2018-12-18T19:31:23.323Z,85.21
2018-12-18T19:34:10.751Z,85.28
2018-12-18T19:37:02.071Z,85.47
2018-12-18T19:39:49.626Z,85.56
2018-12-18T19:42:37.546Z,85.87
2018-12-18T19:45:25.310Z,86.16
2018-12-18T19:48:12.941Z,86.39
2018-12-18T19:51:00.847Z,86.60
2018-12-18T19:53:49.138Z,86.61
2018-12-18T19:56:36.484Z,86.71
2018-12-18T20:02:38.859Z,86.62
2018-12-18T20:05:27.539Z,86.42
2018-12-18T20:08:14.687Z,86.21
2018-12-18T20:11:01.744Z,86.16
2018-12-18T20:13:49.573Z,86.10
2018-12-18T20:16:39.024Z,86.12
2018-12-18T20:19:27.272Z,86.11
2018-12-18T20:22:17.155Z,86.12
2018-12-18T20:25:04.808Z,86.13
2018-12-18T20:27:51.960Z,86.22
2018-12-18T20:30:39.285Z,86.48
2018-12-18T20:33:27.013Z,86.61
2018-12-18T20:36:14.689Z,86.83
2018-12-18T20:39:02.277Z,87.08
2018-12-18T20:41:49.947Z,87.29
2018-12-18T20:44:37.906Z,87.30
2018-12-18T20:47:25.725Z,87.42
2018-12-18T20:50:13.158Z,87.59
2018-12-18T20:53:01.988Z,87.67
2018-12-18T20:55:52.793Z,87.69
2018-12-18T20:58:43.928Z,88.03
2018-12-18T21:01:31.018Z,86.80
2018-12-18T21:04:18.699Z,87.28
2018-12-18T21:07:07.731Z,86.24
2018-12-18T21:09:55.148Z,85.57
2018-12-18T21:12:42.583Z,84.95
2018-12-18T21:15:30.550Z,85.58
2018-12-18T21:18:18.797Z,85.90
2018-12-18T21:21:15.398Z,86.12
2018-12-18T21:23:56.835Z,86.35
2018-12-18T21:26:45.060Z,86.54
2018-12-18T21:29:33.706Z,85.45
2018-12-18T21:32:20.683Z,85.97
2018-12-18T21:35:08.642Z,86.18
2018-12-18T21:37:55.970Z,86.31
2018-12-18T21:40:46.728Z,86.34
2018-12-18T21:43:34.737Z,86.29
2018-12-18T21:46:22.213Z,86.25
2018-12-18T21:49:10.196Z,86.25
2018-12-18T21:52:14.358Z,86.38
2018-12-18T21:55:01.632Z,86.59
2018-12-18T21:57:49.099Z,86.71
2018-12-18T22:00:39.134Z,86.88
2018-12-18T22:03:25.963Z,87.10
2018-12-18T22:06:13.717Z,87.08
2018-12-18T22:09:02.250Z,86.98
2018-12-18T22:11:50.475Z,87.01
2018-12-18T22:14:38.630Z,87.03
2018-12-18T22:17:30.396Z,86.01
2018-12-18T22:20:24.719Z,86.44
2018-12-18T22:23:15.412Z,86.58
2018-12-18T22:26:11.020Z,86.68
2018-12-18T22:29:03.124Z,86.88
2018-12-18T22:31:51.090Z,85.97
2018-12-18T22:34:40.780Z,86.69
2018-12-18T22:37:27.809Z,85.66
2018-12-18T22:40:15.128Z,84.91
2018-12-18T22:43:02.944Z,85.48
2018-12-18T22:45:53.633Z,85.74
2018-12-18T22:48:42.264Z,86.02
2018-12-18T22:51:29.629Z,86.20
2018-12-18T22:54:16.496Z,86.30
2018-12-18T22:57:07.313Z,86.30
2018-12-18T22:59:54.469Z,85.29
2018-12-18T23:02:42.082Z,85.66
2018-12-18T23:05:29.372Z,85.78
2018-12-18T23:08:17.020Z,85.87
2018-12-18T23:11:04.259Z,85.98
2018-12-18T23:13:53.110Z,86.06
2018-12-18T23:16:40.537Z,86.17
2018-12-18T23:19:28.022Z,86.21
2018-12-18T23:25:21.795Z,86.40
2018-12-18T23:28:08.903Z,86.44
2018-12-18T23:30:56.450Z,86.67
2018-12-18T23:33:43.879Z,86.89
2018-12-18T23:36:31.243Z,87.08
2018-12-18T23:39:18.999Z,87.12
2018-12-18T23:42:10.175Z,87.20
2018-12-18T23:44:57.493Z,87.29
2018-12-18T23:47:45.612Z,86.43
2018-12-18T23:50:33.676Z,86.91
2018-12-18T23:53:25.153Z,86.05
2018-12-18T23:56:09.618Z,86.63
2018-12-18T23:58:56.791Z,87.00
